»·PEaware :: SWA2005 KLAS-KPHX

SWA2005 :: KLAS-KPHX

FLIGHT INFORMATION

Flight Status: Arrived
Operator:
Southwest Airlines
More flights by this operator :: More flights under this callsign
Pilot: Drew L. (13237)
Aircraft: BOEING 737-800
(B738)
More flights by this aircraft type
Origin: KLAS McCarran Intl
United States
Destination: KPHX Phoenix Sky Harbor Intl
United States
More flights between these airports :: More routes between these airports
Route: +COWBY8 COWBY TENTS BRUSR1
File this flight plan on PilotEdge
Remarks: PBN / A1B1C1D1S1S2 DOF / 180409 REG / N806SB EET / KZAB0018 OPR / SWA PER / C RMK / TCAS SIMBRIEF
Altitude:
(Current/Filed)
31,000ft
Speed:
(Current/Filed)
432kts
Departed: 09-Apr-18 04:40 PM
Arrived: 09-Apr-18 05:31 PM
Distance/Time
Traveled:
222nm/0:51
Distance/Time
To Go:
Arrived

Flight Plot

Page will automatically refresh every two minutes.

Flight plan parsing failed; only flown route is shown


Map Options




Map Legend


Flown Route
Filed Route
Departure Airport
Arrival Airport
Navaid (VOR, NDB)
Fix

Horizontal Profiles

Position Reports

Time Latitude Longitude Heading Altitude Ground
Speed
09-Apr-18 16:12 36.080043 -115.134867 319 2148ft 0kts
09-Apr-18 16:13 36.080043 -115.134867 319 2148ft 0kts
09-Apr-18 16:14 36.080043 -115.134867 319 2148ft 0kts
09-Apr-18 16:15 36.080043 -115.134867 319 2148ft 0kts
09-Apr-18 16:16 36.080043 -115.134867 319 2148ft 0kts
09-Apr-18 16:17 36.080043 -115.134867 319 2149ft 0kts
09-Apr-18 16:18 36.080043 -115.134867 319 2149ft 0kts
09-Apr-18 16:19 36.080043 -115.134867 319 2149ft 0kts
09-Apr-18 16:20 36.080043 -115.134867 319 2149ft 0kts
09-Apr-18 16:21 36.080043 -115.134867 319 2149ft 0kts
09-Apr-18 16:22 36.080043 -115.134867 319 2149ft 0kts
09-Apr-18 16:23 36.080043 -115.134867 319 2149ft 0kts
09-Apr-18 16:24 36.080043 -115.134867 319 2149ft 0kts
09-Apr-18 16:25 36.080043 -115.134867 319 2149ft 0kts
09-Apr-18 16:26 36.080043 -115.134867 319 2149ft 0kts
09-Apr-18 16:27 36.080043 -115.134867 319 2149ft 0kts
09-Apr-18 16:28 36.080043 -115.134867 319 2149ft 0kts
09-Apr-18 16:29 36.079845 -115.134660 320 2149ft 0kts
09-Apr-18 16:30 36.079791 -115.134047 228 2149ft 1kts
09-Apr-18 16:31 36.079847 -115.133981 222 2149ft 0kts
09-Apr-18 16:32 36.079847 -115.133981 222 2149ft 0kts
09-Apr-18 16:33 36.079847 -115.133981 222 2149ft 0kts
09-Apr-18 16:34 36.079655 -115.134200 222 2149ft 10kts
09-Apr-18 16:35 36.078255 -115.136899 272 2149ft 21kts
09-Apr-18 16:36 36.077596 -115.144918 270 2149ft 29kts
09-Apr-18 16:37 36.078031 -115.153457 272 2149ft 30kts
09-Apr-18 16:38 36.077052 -115.163670 204 2149ft 19kts
09-Apr-18 16:39 36.076409 -115.154519 89 2149ft 112kts
09-Apr-18 16:40 36.075312 -115.094969 86 3557ft 203kts
09-Apr-18 16:41 36.076778 -115.017473 88 6374ft 253kts
09-Apr-18 16:42 36.073938 -114.923612 98 9247ft 289kts
09-Apr-18 16:43 36.059205 -114.819979 97 11373ft 343kts
09-Apr-18 16:44 36.041711 -114.698566 97 13692ft 370kts
09-Apr-18 16:45 36.022362 -114.571771 102 16565ft 388kts
09-Apr-18 16:46 35.991068 -114.441017 103 19034ft 405kts
09-Apr-18 16:47 35.958457 -114.306028 104 21185ft 421kts
09-Apr-18 16:48 35.924360 -114.165618 104 23110ft 435kts
09-Apr-18 16:49 35.896093 -114.049826 104 24486ft 447kts
09-Apr-18 16:50 35.859747 -113.901759 104 26039ft 459kts
09-Apr-18 16:51 35.825385 -113.762724 104 27865ft 457kts
09-Apr-18 16:52 35.788418 -113.614028 104 29649ft 455kts
09-Apr-18 16:53 35.751235 -113.465340 104 31161ft 456kts
09-Apr-18 16:54 35.718659 -113.335700 105 31166ft 475kts
09-Apr-18 16:55 35.694070 -113.238188 105 31171ft 475kts
09-Apr-18 16:56 35.655668 -113.086701 105 31242ft 475kts
09-Apr-18 16:57 35.616296 -112.932407 104 31275ft 472kts
09-Apr-18 16:58 35.576937 -112.779139 104 31278ft 470kts
09-Apr-18 16:59 35.537379 -112.625899 104 30632ft 476kts
09-Apr-18 17:00 35.488030 -112.478679 131 29266ft 470kts
09-Apr-18 17:01 35.368412 -112.424353 170 29265ft 480kts
09-Apr-18 17:02 35.236811 -112.400021 170 29268ft 480kts
09-Apr-18 17:03 35.104647 -112.372960 168 27977ft 479kts
09-Apr-18 17:04 34.974315 -112.344937 169 26404ft 482kts
09-Apr-18 17:05 34.874564 -112.323389 170 25217ft 486kts
09-Apr-18 17:06 34.751072 -112.296363 170 23727ft 488kts
09-Apr-18 17:07 34.625964 -112.268958 170 22225ft 489kts
09-Apr-18 17:08 34.508892 -112.243371 170 20779ft 460kts
09-Apr-18 17:09 34.386313 -112.214581 168 19199ft 455kts
09-Apr-18 17:10 34.263108 -112.182694 167 17616ft 455kts
09-Apr-18 17:11 34.144935 -112.152189 167 17066ft 393kts
09-Apr-18 17:12 34.056043 -112.102674 133 16990ft 353kts
09-Apr-18 17:13 33.989092 -112.018561 132 16369ft 346kts
09-Apr-18 17:14 33.922993 -111.935959 132 14884ft 338kts
09-Apr-18 17:15 33.841196 -111.909976 192 13058ft 330kts
09-Apr-18 17:16 33.767824 -111.930463 193 12785ft 277kts
09-Apr-18 17:17 33.697156 -111.950382 193 10754ft 268kts
09-Apr-18 17:18 33.626807 -111.953426 162 8182ft 261kts
09-Apr-18 17:19 33.559651 -111.925570 161 6966ft 252kts
09-Apr-18 17:20 33.526809 -111.862414 90 6993ft 246kts
09-Apr-18 17:21 33.526363 -111.779788 88 6473ft 259kts
09-Apr-18 17:22 33.526365 -111.696281 93 5069ft 264kts
09-Apr-18 17:23 33.477973 -111.672719 225 5027ft 222kts
09-Apr-18 17:24 33.434876 -111.728369 230 4588ft 239kts
09-Apr-18 17:25 33.428138 -111.800387 272 3958ft 207kts
09-Apr-18 17:26 33.428679 -111.860913 270 3442ft 179kts
09-Apr-18 17:27 33.428739 -111.916776 271 2562ft 147kts
09-Apr-18 17:28 33.428798 -111.960506 271 1856ft 135kts
09-Apr-18 17:29 33.428842 -112.006856 272 1142ft 134kts
09-Apr-18 17:30 33.429684 -112.021633 2 1142ft 6kts
09-Apr-18 17:31 33.429946 -112.018313 90 1142ft 20kts
09-Apr-18 17:32 33.432144 -112.014801 90 1142ft 11kts
09-Apr-18 17:33 33.432861 -112.008121 90 1142ft 32kts
09-Apr-18 17:34 33.432956 -111.995406 73 1142ft 33kts
09-Apr-18 17:35 33.433395 -111.994545 39 1142ft 0kts

Navigation Log

Ident Type
Flight plan parsing failed, navigation log unavailable